sensor_id;sensor_type;location;lat;lon;timestamp;pressure;altitude;pressure_sealevel;temperature;humidity
18678;BME280;9469;51.114;13.914;2022-08-14T00:05:15;98665.38;;;18.84;100.00
18678;BME280;9469;51.114;13.914;2022-08-14T00:10:21;98655.09;;;18.70;100.00
18678;BME280;9469;51.114;13.914;2022-08-14T00:15:50;98654.28;;;18.70;100.00
18678;BME280;9469;51.114;13.914;2022-08-14T00:20:56;98647.97;;;18.62;100.00
18678;BME280;9469;51.114;13.914;2022-08-14T00:26:02;98639.63;;;18.67;100.00
18678;BME280;9469;51.114;13.914;2022-08-14T00:31:25;98641.16;;;18.68;100.00
18678;BME280;9469;51.114;13.914;2022-08-14T00:36:46;98631.94;;;18.69;100.00
18678;BME280;9469;51.114;13.914;2022-08-14T00:41:51;98639.09;;;18.61;100.00
18678;BME280;9469;51.114;13.914;2022-08-14T00:46:59;98630.81;;;18.51;100.00
18678;BME280;9469;51.114;13.914;2022-08-14T00:52:04;98628.94;;;18.36;100.00
18678;BME280;9469;51.114;13.914;2022-08-14T00:57:14;98629.31;;;18.19;100.00
18678;BME280;9469;51.114;13.914;2022-08-14T01:02:22;98628.47;;;18.15;100.00
18678;BME280;9469;51.114;13.914;2022-08-14T01:07:29;98623.34;;;18.63;100.00
18678;BME280;9469;51.114;13.914;2022-08-14T01:12:47;98632.53;;;18.97;100.00
18678;BME280;9469;51.114;13.914;2022-08-14T01:17:57;98634.56;;;18.46;100.00
18678;BME280;9469;51.114;13.914;2022-08-14T01:23:17;98628.97;;;18.20;100.00
18678;BME280;9469;51.114;13.914;2022-08-14T01:28:23;98637.66;;;18.14;100.00
18678;BME280;9469;51.114;13.914;2022-08-14T01:33:52;98633.75;;;18.27;100.00
18678;BME280;9469;51.114;13.914;2022-08-14T01:39:20;98628.34;;;18.27;100.00
18678;BME280;9469;51.114;13.914;2022-08-14T01:44:28;98627.19;;;18.09;100.00
18678;BME280;9469;51.114;13.914;2022-08-14T01:49:35;98631.63;;;18.01;100.00
18678;BME280;9469;51.114;13.914;2022-08-14T01:54:49;98622.84;;;18.04;100.00
18678;BME280;9469;51.114;13.914;2022-08-14T01:59:59;98615.81;;;18.00;100.00
18678;BME280;9469;51.114;13.914;2022-08-14T02:05:07;98610.72;;;17.95;100.00
18678;BME280;9469;51.114;13.914;2022-08-14T02:10:17;98616.56;;;17.65;100.00
18678;BME280;9469;51.114;13.914;2022-08-14T02:15:28;98627.56;;;17.60;100.00
18678;BME280;9469;51.114;13.914;2022-08-14T02:20:33;98618.22;;;17.54;100.00
18678;BME280;9469;51.114;13.914;2022-08-14T02:25:40;98634.25;;;17.66;100.00
18678;BME280;9469;51.114;13.914;2022-08-14T02:30:55;98608.09;;;17.82;100.00
18678;BME280;9469;51.114;13.914;2022-08-14T02:36:00;98614.03;;;17.72;100.00
18678;BME280;9469;51.114;13.914;2022-08-14T02:41:28;98615.81;;;17.37;100.00
18678;BME280;9469;51.114;13.914;2022-08-14T02:46:40;98620.31;;;17.17;100.00
18678;BME280;9469;51.114;13.914;2022-08-14T02:51:50;98607.75;;;17.37;100.00
18678;BME280;9469;51.114;13.914;2022-08-14T02:57:00;98602.94;;;17.58;100.00
18678;BME280;9469;51.114;13.914;2022-08-14T03:02:28;98591.44;;;17.30;100.00
18678;BME280;9469;51.114;13.914;2022-08-14T03:08:03;98592.41;;;17.22;100.00
18678;BME280;9469;51.114;13.914;2022-08-14T03:13:14;98596.13;;;17.17;100.00
18678;BME280;9469;51.114;13.914;2022-08-14T03:18:22;98587.47;;;17.24;100.00
18678;BME280;9469;51.114;13.914;2022-08-14T03:23:33;98592.75;;;17.20;100.00
18678;BME280;9469;51.114;13.914;2022-08-14T03:28:44;98587.19;;;17.13;100.00
18678;BME280;9469;51.114;13.914;2022-08-14T03:33:50;98593.66;;;16.97;100.00
18678;BME280;9469;51.114;13.914;2022-08-14T03:38:55;98599.00;;;16.81;100.00
18678;BME280;9469;51.114;13.914;2022-08-14T03:44:23;98592.22;;;16.72;100.00
18678;BME280;9469;51.114;13.914;2022-08-14T03:49:49;98592.41;;;16.79;100.00
18678;BME280;9469;51.114;13.914;2022-08-14T03:54:58;98591.97;;;16.77;100.00
18678;BME280;9469;51.114;13.914;2022-08-14T04:00:09;98577.34;;;16.90;100.00
18678;BME280;9469;51.114;13.914;2022-08-14T04:05:36;98575.41;;;17.02;100.00
18678;BME280;9469;51.114;13.914;2022-08-14T04:10:49;98559.53;;;17.13;100.00
18678;BME280;9469;51.114;13.914;2022-08-14T04:15:58;98560.06;;;17.65;100.00
18678;BME280;9469;51.114;13.914;2022-08-14T04:21:06;98562.94;;;17.72;100.00
18678;BME280;9469;51.114;13.914;2022-08-14T04:26:13;98562.47;;;18.40;100.00
18678;BME280;9469;51.114;13.914;2022-08-14T04:31:42;98568.34;;;18.84;100.00
18678;BME280;9469;51.114;13.914;2022-08-14T04:37:08;98555.22;;;19.73;100.00
18678;BME280;9469;51.114;13.914;2022-08-14T04:42:31;98556.03;;;21.43;100.00
18678;BME280;9469;51.114;13.914;2022-08-14T04:47:55;98555.16;;;22.55;94.06
18678;BME280;9469;51.114;13.914;2022-08-14T04:53:15;98545.38;;;22.33;95.21
18678;BME280;9469;51.114;13.914;2022-08-14T04:58:29;98552.91;;;22.71;94.19
18678;BME280;9469;51.114;13.914;2022-08-14T05:03:37;98544.47;;;23.18;90.83
18678;BME280;9469;51.114;13.914;2022-08-14T05:08:42;98547.22;;;23.46;89.37
18678;BME280;9469;51.114;13.914;2022-08-14T05:14:01;98549.13;;;23.64;87.92
18678;BME280;9469;51.114;13.914;2022-08-14T05:19:28;98555.28;;;22.90;93.40
18678;BME280;9469;51.114;13.914;2022-08-14T05:24:33;98543.16;;;24.39;86.60
18678;BME280;9469;51.114;13.914;2022-08-14T05:29:39;98543.41;;;25.76;81.44
18678;BME280;9469;51.114;13.914;2022-08-14T05:34:50;98528.84;;;26.87;76.79
18678;BME280;9469;51.114;13.914;2022-08-14T05:39:59;98520.00;;;27.52;75.35
18678;BME280;9469;51.114;13.914;2022-08-14T05:45:07;98526.81;;;27.44;75.14
18678;BME280;9469;51.114;13.914;2022-08-14T05:50:17;98523.13;;;27.54;75.39
18678;BME280;9469;51.114;13.914;2022-08-14T05:55:24;98519.31;;;28.86;69.91
18678;BME280;9469;51.114;13.914;2022-08-14T06:00:32;98520.69;;;29.74;68.18
18678;BME280;9469;51.114;13.914;2022-08-14T06:05:43;98508.78;;;30.38;66.24
18678;BME280;9469;51.114;13.914;2022-08-14T06:10:55;98516.25;;;30.51;65.94
18678;BME280;9469;51.114;13.914;2022-08-14T06:16:04;98521.41;;;30.74;65.77
18678;BME280;9469;51.114;13.914;2022-08-14T06:21:12;98501.34;;;31.02;65.44
18678;BME280;9469;51.114;13.914;2022-08-14T06:26:18;98486.75;;;31.05;65.41
18678;BME280;9469;51.114;13.914;2022-08-14T06:31:31;98481.41;;;32.35;63.10
18678;BME280;9469;51.114;13.914;2022-08-14T06:36:39;98482.81;;;33.10;60.96
18678;BME280;9469;51.114;13.914;2022-08-14T06:41:50;98478.13;;;33.47;60.14
18678;BME280;9469;51.114;13.914;2022-08-14T06:47:01;98478.41;;;33.12;60.52
18678;BME280;9469;51.114;13.914;2022-08-14T06:52:08;98486.81;;;28.52;73.61
18678;BME280;9469;51.114;13.914;2022-08-14T06:57:17;98487.09;;;26.60;82.55
18678;BME280;9469;51.114;13.914;2022-08-14T07:02:22;98474.34;;;29.03;74.06
18678;BME280;9469;51.114;13.914;2022-08-14T07:07:47;98457.81;;;31.60;65.61
18678;BME280;9469;51.114;13.914;2022-08-14T07:12:52;98462.56;;;29.67;70.89
18678;BME280;9469;51.114;13.914;2022-08-14T07:18:05;98463.44;;;30.34;68.31
18678;BME280;9469;51.114;13.914;2022-08-14T07:23:13;98452.44;;;30.46;68.58
18678;BME280;9469;51.114;13.914;2022-08-14T07:28:25;98458.53;;;30.13;69.93
18678;BME280;9469;51.114;13.914;2022-08-14T07:33:31;98457.75;;;29.71;71.59
18678;BME280;9469;51.114;13.914;2022-08-14T07:38:40;98464.56;;;27.55;79.64
18678;BME280;9469;51.114;13.914;2022-08-14T07:43:53;98455.75;;;28.62;75.76
18678;BME280;9469;51.114;13.914;2022-08-14T07:48:58;98446.91;;;27.60;79.50
18678;BME280;9469;51.114;13.914;2022-08-14T07:54:07;98451.16;;;27.18;81.40
18678;BME280;9469;51.114;13.914;2022-08-14T07:59:12;98447.16;;;26.99;82.00
18678;BME280;9469;51.114;13.914;2022-08-14T08:04:22;98438.44;;;27.74;80.53
18678;BME280;9469;51.114;13.914;2022-08-14T08:09:31;98427.63;;;28.78;75.08
18678;BME280;9469;51.114;13.914;2022-08-14T08:14:36;98425.88;;;27.96;77.78
18678;BME280;9469;51.114;13.914;2022-08-14T08:19:57;98426.59;;;28.20;76.55
18678;BME280;9469;51.114;13.914;2022-08-14T08:25:05;98423.16;;;29.00;72.12
18678;BME280;9469;51.114;13.914;2022-08-14T08:30:19;98421.47;;;28.22;69.47
18678;BME280;9469;51.114;13.914;2022-08-14T08:35:27;98419.09;;;27.85;69.74
18678;BME280;9469;51.114;13.914;2022-08-14T08:40:57;98419.44;;;27.87;68.07
18678;BME280;9469;51.114;13.914;2022-08-14T08:46:03;98422.59;;;28.05;67.68
18678;BME280;9469;51.114;13.914;2022-08-14T08:51:24;98413.50;;;28.27;67.17
18678;BME280;9469;51.114;13.914;2022-08-14T08:56:40;98412.53;;;28.37;65.58
18678;BME280;9469;51.114;13.914;2022-08-14T09:01:50;98411.75;;;28.01;66.52
18678;BME280;9469;51.114;13.914;2022-08-14T09:06:58;98409.47;;;28.16;66.55
18678;BME280;9469;51.114;13.914;2022-08-14T09:12:14;98405.28;;;28.63;66.23
18678;BME280;9469;51.114;13.914;2022-08-14T09:17:20;98395.97;;;28.93;65.17
18678;BME280;9469;51.114;13.914;2022-08-14T09:22:27;98391.09;;;28.84;65.26
18678;BME280;9469;51.114;13.914;2022-08-14T09:27:51;98385.34;;;29.97;62.64
18678;BME280;9469;51.114;13.914;2022-08-14T09:33:25;98388.97;;;28.60;66.47
18678;BME280;9469;51.114;13.914;2022-08-14T09:38:48;98388.13;;;28.63;66.99
18678;BME280;9469;51.114;13.914;2022-08-14T09:44:03;98372.44;;;28.63;66.20
18678;BME280;9469;51.114;13.914;2022-08-14T09:49:10;98353.78;;;28.26;65.98
18678;BME280;9469;51.114;13.914;2022-08-14T09:54:17;98360.00;;;28.10;65.91
18678;BME280;9469;51.114;13.914;2022-08-14T09:59:27;98351.97;;;29.00;63.92
18678;BME280;9469;51.114;13.914;2022-08-14T10:04:43;98346.56;;;28.16;65.30
18678;BME280;9469;51.114;13.914;2022-08-14T10:09:50;98338.22;;;29.03;63.44
18678;BME280;9469;51.114;13.914;2022-08-14T10:15:13;98326.69;;;29.25;63.80
18678;BME280;9469;51.114;13.914;2022-08-14T10:20:31;98325.81;;;28.99;64.12
18678;BME280;9469;51.114;13.914;2022-08-14T10:25:44;98319.94;;;28.84;64.23
18678;BME280;9469;51.114;13.914;2022-08-14T10:30:56;98318.75;;;29.14;65.03
18678;BME280;9469;51.114;13.914;2022-08-14T10:36:01;98299.91;;;29.16;63.37
18678;BME280;9469;51.114;13.914;2022-08-14T10:41:16;98297.53;;;28.57;63.98
18678;BME280;9469;51.114;13.914;2022-08-14T10:46:23;98283.81;;;29.59;62.27
18678;BME280;9469;51.114;13.914;2022-08-14T10:52:01;98280.94;;;29.09;62.83
18678;BME280;9469;51.114;13.914;2022-08-14T10:57:14;98279.22;;;29.15;62.50
18678;BME280;9469;51.114;13.914;2022-08-14T11:02:25;98265.03;;;29.33;62.33
18678;BME280;9469;51.114;13.914;2022-08-14T11:07:57;98263.66;;;29.66;63.02
18678;BME280;9469;51.114;13.914;2022-08-14T11:13:17;98274.47;;;28.58;63.68
18678;BME280;9469;51.114;13.914;2022-08-14T11:18:28;98262.16;;;28.95;63.81
18678;BME280;9469;51.114;13.914;2022-08-14T11:23:44;98269.50;;;28.21;63.41
18678;BME280;9469;51.114;13.914;2022-08-14T11:28:55;98268.31;;;28.06;65.40
18678;BME280;9469;51.114;13.914;2022-08-14T11:34:06;98270.00;;;27.64;68.22
18678;BME280;9469;51.114;13.914;2022-08-14T11:39:31;98270.22;;;27.14;67.83
18678;BME280;9469;51.114;13.914;2022-08-14T11:44:37;98282.78;;;27.31;68.99
18678;BME280;9469;51.114;13.914;2022-08-14T11:49:50;98268.25;;;26.75;72.59
18678;BME280;9469;51.114;13.914;2022-08-14T11:54:56;98271.00;;;26.72;73.11
18678;BME280;9469;51.114;13.914;2022-08-14T12:00:07;98268.78;;;27.29;71.05
18678;BME280;9469;51.114;13.914;2022-08-14T12:05:33;98253.66;;;27.44;69.73
18678;BME280;9469;51.114;13.914;2022-08-14T12:10:42;98245.69;;;27.69;68.39
18678;BME280;9469;51.114;13.914;2022-08-14T12:15:58;98247.72;;;28.01;67.42
18678;BME280;9469;51.114;13.914;2022-08-14T12:21:16;98229.78;;;28.00;66.52
18678;BME280;9469;51.114;13.914;2022-08-14T12:26:21;98230.59;;;27.81;68.08
18678;BME280;9469;51.114;13.914;2022-08-14T12:31:42;98231.19;;;27.89;68.64
18678;BME280;9469;51.114;13.914;2022-08-14T12:37:03;98218.75;;;28.20;66.76
18678;BME280;9469;51.114;13.914;2022-08-14T12:42:09;98214.19;;;27.81;66.89
18678;BME280;9469;51.114;13.914;2022-08-14T12:47:35;98209.06;;;27.83;67.33
18678;BME280;9469;51.114;13.914;2022-08-14T12:52:42;98195.16;;;27.94;67.02
18678;BME280;9469;51.114;13.914;2022-08-14T12:58:09;98196.94;;;28.32;66.29
18678;BME280;9469;51.114;13.914;2022-08-14T13:03:36;98193.09;;;27.98;66.29
18678;BME280;9469;51.114;13.914;2022-08-14T13:08:47;98183.19;;;27.88;66.84
18678;BME280;9469;51.114;13.914;2022-08-14T13:13:59;98183.13;;;28.97;65.37
18678;BME280;9469;51.114;13.914;2022-08-14T13:19:06;98165.50;;;29.10;65.70
18678;BME280;9469;51.114;13.914;2022-08-14T13:24:23;98136.16;;;29.61;64.06
18678;BME280;9469;51.114;13.914;2022-08-14T13:29:29;98127.75;;;29.31;63.25
18678;BME280;9469;51.114;13.914;2022-08-14T13:34:38;98119.09;;;30.17;61.83
18678;BME280;9469;51.114;13.914;2022-08-14T13:39:50;98105.06;;;30.58;60.00
18678;BME280;9469;51.114;13.914;2022-08-14T13:44:59;98101.28;;;29.87;60.76
18678;BME280;9469;51.114;13.914;2022-08-14T13:50:10;98098.47;;;29.78;61.52
18678;BME280;9469;51.114;13.914;2022-08-14T13:55:25;98081.41;;;29.96;60.49
18678;BME280;9469;51.114;13.914;2022-08-14T14:00:34;98073.50;;;29.38;61.03
18678;BME280;9469;51.114;13.914;2022-08-14T14:05:57;98074.22;;;28.88;61.25
18678;BME280;9469;51.114;13.914;2022-08-14T14:11:06;98066.22;;;29.82;59.35
18678;BME280;9469;51.114;13.914;2022-08-14T14:16:12;98065.38;;;29.60;59.54
18678;BME280;9469;51.114;13.914;2022-08-14T14:21:31;98063.47;;;28.69;61.73
18678;BME280;9469;51.114;13.914;2022-08-14T14:26:44;98053.16;;;28.19;63.60
18678;BME280;9469;51.114;13.914;2022-08-14T14:31:51;98048.81;;;28.05;64.65
18678;BME280;9469;51.114;13.914;2022-08-14T14:37:01;98045.22;;;27.63;65.02
18678;BME280;9469;51.114;13.914;2022-08-14T14:42:10;98046.22;;;27.86;65.14
18678;BME280;9469;51.114;13.914;2022-08-14T14:47:19;98051.25;;;27.71;65.01
18678;BME280;9469;51.114;13.914;2022-08-14T14:52:26;98052.03;;;27.71;65.21
18678;BME280;9469;51.114;13.914;2022-08-14T14:57:41;98046.28;;;27.82;65.00
18678;BME280;9469;51.114;13.914;2022-08-14T15:02:53;98037.91;;;28.05;64.92
18678;BME280;9469;51.114;13.914;2022-08-14T15:08:00;98039.03;;;28.20;62.79
18678;BME280;9469;51.114;13.914;2022-08-14T15:13:10;98033.97;;;28.48;62.41
18678;BME280;9469;51.114;13.914;2022-08-14T15:18:15;98034.97;;;27.96;63.49
18678;BME280;9469;51.114;13.914;2022-08-14T15:23:41;98033.72;;;28.01;64.06
18678;BME280;9469;51.114;13.914;2022-08-14T15:28:49;98021.59;;;28.43;63.34
18678;BME280;9469;51.114;13.914;2022-08-14T15:34:06;98014.00;;;28.76;62.39
18678;BME280;9469;51.114;13.914;2022-08-14T15:39:38;98002.44;;;28.30;63.75
18678;BME280;9469;51.114;13.914;2022-08-14T15:44:49;97989.47;;;28.72;62.64
18678;BME280;9469;51.114;13.914;2022-08-14T15:50:05;97987.19;;;28.58;62.76
18678;BME280;9469;51.114;13.914;2022-08-14T15:55:14;97991.25;;;28.91;61.61
18678;BME280;9469;51.114;13.914;2022-08-14T16:00:21;97988.22;;;28.48;62.56
18678;BME280;9469;51.114;13.914;2022-08-14T16:05:45;97980.88;;;28.45;62.79
18678;BME280;9469;51.114;13.914;2022-08-14T16:10:50;97972.59;;;28.36;62.66
18678;BME280;9469;51.114;13.914;2022-08-14T16:15:58;97971.25;;;28.28;62.78
18678;BME280;9469;51.114;13.914;2022-08-14T16:21:25;97958.78;;;28.52;62.39
18678;BME280;9469;51.114;13.914;2022-08-14T16:26:32;97968.44;;;28.31;62.91
18678;BME280;9469;51.114;13.914;2022-08-14T16:31:41;97966.81;;;28.05;63.45
18678;BME280;9469;51.114;13.914;2022-08-14T16:36:48;97973.84;;;27.90;63.66
18678;BME280;9469;51.114;13.914;2022-08-14T16:41:56;97971.31;;;28.12;63.98
18678;BME280;9469;51.114;13.914;2022-08-14T16:47:25;97970.19;;;28.38;63.43
18678;BME280;9469;51.114;13.914;2022-08-14T16:52:36;97970.25;;;28.34;63.61
18678;BME280;9469;51.114;13.914;2022-08-14T16:57:46;97958.22;;;28.19;64.39
18678;BME280;9469;51.114;13.914;2022-08-14T17:02:59;97960.84;;;27.94;65.86
18678;BME280;9469;51.114;13.914;2022-08-14T17:08:11;97959.09;;;27.59;67.59
18678;BME280;9469;51.114;13.914;2022-08-14T17:13:38;97951.50;;;27.50;68.50
18678;BME280;9469;51.114;13.914;2022-08-14T17:19:05;97949.16;;;27.36;69.36
18678;BME280;9469;51.114;13.914;2022-08-14T17:24:16;97954.16;;;26.89;71.37
18678;BME280;9469;51.114;13.914;2022-08-14T17:29:41;97952.72;;;26.85;71.54
18678;BME280;9469;51.114;13.914;2022-08-14T17:35:00;97939.38;;;26.71;71.39
18678;BME280;9469;51.114;13.914;2022-08-14T17:40:13;97952.22;;;26.54;72.22
18678;BME280;9469;51.114;13.914;2022-08-14T17:45:22;97949.31;;;26.45;72.43
18678;BME280;9469;51.114;13.914;2022-08-14T17:50:46;97945.63;;;26.36;72.55
18678;BME280;9469;51.114;13.914;2022-08-14T17:56:01;97958.41;;;26.39;72.98
18678;BME280;9469;51.114;13.914;2022-08-14T18:01:11;97951.75;;;26.40;72.80
18678;BME280;9469;51.114;13.914;2022-08-14T18:06:27;97952.97;;;26.39;72.62
18678;BME280;9469;51.114;13.914;2022-08-14T18:11:53;97958.22;;;26.29;72.60
18678;BME280;9469;51.114;13.914;2022-08-14T18:16:59;97949.66;;;26.11;73.37
18678;BME280;9469;51.114;13.914;2022-08-14T18:22:09;97954.22;;;26.14;73.79
18678;BME280;9469;51.114;13.914;2022-08-14T18:27:38;97954.78;;;26.06;74.19
18678;BME280;9469;51.114;13.914;2022-08-14T18:32:47;97961.56;;;25.78;75.14
18678;BME280;9469;51.114;13.914;2022-08-14T18:38:22;97961.69;;;25.71;75.37
18678;BME280;9469;51.114;13.914;2022-08-14T18:43:47;97950.59;;;25.62;76.39
18678;BME280;9469;51.114;13.914;2022-08-14T18:49:12;97953.22;;;25.46;76.46
18678;BME280;9469;51.114;13.914;2022-08-14T18:54:35;97952.53;;;25.38;77.08
18678;BME280;9469;51.114;13.914;2022-08-14T18:59:49;97949.56;;;25.29;77.24
18678;BME280;9469;51.114;13.914;2022-08-14T19:05:00;97959.56;;;25.36;77.44
18678;BME280;9469;51.114;13.914;2022-08-14T19:10:08;97956.25;;;25.25;77.63
18678;BME280;9469;51.114;13.914;2022-08-14T19:15:19;97946.56;;;25.01;78.85
18678;BME280;9469;51.114;13.914;2022-08-14T19:20:45;97943.28;;;24.86;79.51
18678;BME280;9469;51.114;13.914;2022-08-14T19:25:58;97957.56;;;24.67;80.64
18678;BME280;9469;51.114;13.914;2022-08-14T19:31:34;97951.28;;;24.70;80.22
18678;BME280;9469;51.114;13.914;2022-08-14T19:36:55;97964.84;;;24.73;80.19
18678;BME280;9469;51.114;13.914;2022-08-14T19:42:15;97952.75;;;24.74;80.37
18678;BME280;9469;51.114;13.914;2022-08-14T19:47:32;97941.78;;;24.55;81.39
18678;BME280;9469;51.114;13.914;2022-08-14T19:52:42;97941.25;;;24.40;82.10
18678;BME280;9469;51.114;13.914;2022-08-14T19:57:52;97951.06;;;24.31;82.57
18678;BME280;9469;51.114;13.914;2022-08-14T20:03:04;97942.72;;;24.14;83.23
18678;BME280;9469;51.114;13.914;2022-08-14T20:08:14;97945.91;;;24.09;83.47
18678;BME280;9469;51.114;13.914;2022-08-14T20:13:43;97942.44;;;24.02;84.21
18678;BME280;9469;51.114;13.914;2022-08-14T20:18:53;97945.94;;;24.02;84.27
18678;BME280;9469;51.114;13.914;2022-08-14T20:24:33;97946.22;;;23.78;85.14
18678;BME280;9469;51.114;13.914;2022-08-14T20:29:49;97954.47;;;24.04;83.68
18678;BME280;9469;51.114;13.914;2022-08-14T20:35:27;97955.00;;;23.92;84.76
18678;BME280;9469;51.114;13.914;2022-08-14T20:40:38;97950.38;;;24.23;83.59
18678;BME280;9469;51.114;13.914;2022-08-14T20:45:56;97954.16;;;23.99;84.54
18678;BME280;9469;51.114;13.914;2022-08-14T20:51:18;97957.78;;;23.48;87.15
18678;BME280;9469;51.114;13.914;2022-08-14T20:56:25;97949.78;;;23.30;87.83
18678;BME280;9469;51.114;13.914;2022-08-14T21:01:36;97950.16;;;22.88;89.77
18678;BME280;9469;51.114;13.914;2022-08-14T21:06:41;97942.13;;;22.74;91.24
18678;BME280;9469;51.114;13.914;2022-08-14T21:12:09;97931.59;;;22.83;90.52
18678;BME280;9469;51.114;13.914;2022-08-14T21:17:37;97913.66;;;22.96;89.90
18678;BME280;9469;51.114;13.914;2022-08-14T21:22:46;97918.41;;;22.89;90.33
18678;BME280;9469;51.114;13.914;2022-08-14T21:27:51;97923.41;;;22.87;90.94
18678;BME280;9469;51.114;13.914;2022-08-14T21:33:03;97926.00;;;23.04;89.37
18678;BME280;9469;51.114;13.914;2022-08-14T21:38:13;97910.63;;;23.35;87.40
18678;BME280;9469;51.114;13.914;2022-08-14T21:43:21;97914.09;;;22.91;89.91
18678;BME280;9469;51.114;13.914;2022-08-14T21:48:33;97910.47;;;22.57;92.10
18678;BME280;9469;51.114;13.914;2022-08-14T21:53:45;97912.94;;;22.34;93.41
18678;BME280;9469;51.114;13.914;2022-08-14T21:59:00;97907.22;;;22.18;94.17
18678;BME280;9469;51.114;13.914;2022-08-14T22:04:11;97906.47;;;22.13;94.24
18678;BME280;9469;51.114;13.914;2022-08-14T22:09:35;97904.59;;;21.96;95.45
18678;BME280;9469;51.114;13.914;2022-08-14T22:14:44;97900.38;;;21.81;95.91
18678;BME280;9469;51.114;13.914;2022-08-14T22:19:51;97900.88;;;21.44;97.72
18678;BME280;9469;51.114;13.914;2022-08-14T22:24:58;97903.63;;;21.27;98.51
18678;BME280;9469;51.114;13.914;2022-08-14T22:30:06;97903.59;;;21.41;98.54
18678;BME280;9469;51.114;13.914;2022-08-14T22:35:15;97896.63;;;21.47;97.98
18678;BME280;9469;51.114;13.914;2022-08-14T22:40:25;97891.97;;;21.51;97.39
18678;BME280;9469;51.114;13.914;2022-08-14T22:45:50;97898.22;;;20.99;100.00
18678;BME280;9469;51.114;13.914;2022-08-14T22:51:05;97902.06;;;20.59;100.00
18678;BME280;9469;51.114;13.914;2022-08-14T22:56:16;97900.91;;;20.67;100.00
18678;BME280;9469;51.114;13.914;2022-08-14T23:01:35;97907.88;;;20.57;100.00
18678;BME280;9469;51.114;13.914;2022-08-14T23:07:03;97904.41;;;20.53;100.00
18678;BME280;9469;51.114;13.914;2022-08-14T23:12:25;97892.03;;;20.52;100.00
18678;BME280;9469;51.114;13.914;2022-08-14T23:17:35;97890.50;;;20.55;100.00
18678;BME280;9469;51.114;13.914;2022-08-14T23:22:47;97876.03;;;19.84;100.00
18678;BME280;9469;51.114;13.914;2022-08-14T23:27:53;97864.53;;;20.04;100.00
18678;BME280;9469;51.114;13.914;2022-08-14T23:33:05;97864.50;;;19.97;100.00
18678;BME280;9469;51.114;13.914;2022-08-14T23:38:13;97867.91;;;19.77;100.00
18678;BME280;9469;51.114;13.914;2022-08-14T23:43:32;97852.97;;;20.18;100.00
18678;BME280;9469;51.114;13.914;2022-08-14T23:48:38;97861.06;;;20.00;100.00
18678;BME280;9469;51.114;13.914;2022-08-14T23:53:50;97855.63;;;19.97;100.00
18678;BME280;9469;51.114;13.914;2022-08-14T23:58:57;97859.06;;;19.80;100.00
